Basongo Airport


Codes: FZVR/BAN
Name: Basongo Airport
City: Basongo
Country: Congo [DRC]
Elevation: 1640 ft.

Photos at Basongo Airport


   Photos courtesy of SpottingLog. You can add your own sightings and photos by signing up for a free trial today.



No photos found.

Weather at Basongo Airport


Time (UTC)DescriptionTempratureWindCloud coverageVisibilityPressureHumidity
17-Jun-2024 06:00Overcast Clouds20°C0 mph, SW100%10000m1014hPa53%
17-Jun-2024 09:00Overcast Clouds27°C2 mph, W86%10000m1014hPa38%
17-Jun-2024 12:00Overcast Clouds35°C0 mph, E88%10000m1010hPa23%
17-Jun-2024 15:00Scattered Clouds34°C2 mph, E41%10000m1009hPa24%
17-Jun-2024 18:00Broken Clouds25°C2 mph, SE51%10000m1011hPa38%
17-Jun-2024 21:00Broken Clouds23°C2 mph, SE53%10000m1012hPa43%
18-Jun-2024 00:00Scattered Clouds21°C0 mph, NW45%10000m1011hPa48%
18-Jun-2024 03:00Clear Sky20°C0 mph, E1%10000m1011hPa53%
18-Jun-2024 06:00Clear Sky22°C0 mph, E1%10000m1013hPa51%
18-Jun-2024 09:00Clear Sky33°C2 mph, NE0%10000m1012hPa26%
18-Jun-2024 12:00Clear Sky37°C2 mph, E1%10000m1009hPa20%
18-Jun-2024 15:00Clear Sky35°C2 mph, NE4%10000m1007hPa21%
18-Jun-2024 18:00Clear Sky26°C0 mph, E4%10000m1010hPa39%
18-Jun-2024 21:00Clear Sky24°C0 mph, S3%10000m1011hPa44%
19-Jun-2024 00:00Clear Sky23°C0 mph, SW1%10000m1009hPa47%
19-Jun-2024 03:00Clear Sky21°C0 mph, NE2%10000m1009hPa51%
19-Jun-2024 06:00Clear Sky23°C0 mph, NE5%10000m1011hPa51%
19-Jun-2024 09:00Few Clouds34°C0 mph, SE13%10000m1011hPa26%
19-Jun-2024 12:00Few Clouds39°C2 mph, E16%10000m1007hPa19%
19-Jun-2024 15:00Scattered Clouds36°C2 mph, NE41%10000m1006hPa21%
19-Jun-2024 18:00Few Clouds27°C0 mph, NE23%10000m1008hPa39%
19-Jun-2024 21:00Clear Sky25°C0 mph, SW2%10000m1010hPa45%
20-Jun-2024 00:00Clear Sky23°C2 mph, SW5%10000m1009hPa51%
20-Jun-2024 03:00Clear Sky22°C2 mph, SW8%10000m1010hPa54%
20-Jun-2024 06:00Scattered Clouds24°C0 mph, SE34%10000m1011hPa50%
20-Jun-2024 09:00Overcast Clouds29°C2 mph, E97%10000m1013hPa38%
20-Jun-2024 12:00Overcast Clouds37°C2 mph, NE92%10000m1009hPa22%
20-Jun-2024 15:00Few Clouds36°C2 mph, NE14%10000m1007hPa23%
20-Jun-2024 18:00Clear Sky26°C2 mph, NE8%10000m1009hPa44%
20-Jun-2024 21:00Clear Sky24°C2 mph, NE2%10000m1010hPa49%
21-Jun-2024 00:00Few Clouds23°C0 mph, SW19%10000m1009hPa52%
21-Jun-2024 03:00Scattered Clouds22°C0 mph, S25%10000m1010hPa55%
21-Jun-2024 06:00Scattered Clouds24°C2 mph, E34%10000m1013hPa53%
21-Jun-2024 09:00Overcast Clouds33°C4 mph, NE92%10000m1012hPa31%
21-Jun-2024 12:00Overcast Clouds38°C2 mph, NE92%10000m1008hPa22%
21-Jun-2024 15:00Broken Clouds37°C2 mph, NE62%10000m1006hPa22%
21-Jun-2024 18:00Scattered Clouds29°C0 mph, NW43%10000m1008hPa37%
21-Jun-2024 21:00Scattered Clouds27°C0 mph, SW35%10000m1009hPa41%
22-Jun-2024 00:00Few Clouds24°C2 mph, S19%10000m1009hPa48%
22-Jun-2024 03:00Scattered Clouds24°C0 mph, SE50%10000m1009hPa48%